< < Back
Terminal Aerodrome Forecast


Current Version              Previous Versions:   1  2  3  4  5  6  7  8  9  

Terminal Aerodrome Forecast

617
FTUS42 KCAE 041730
TAFAGS
TAF
KAGS 041730Z 0418/0518 VRB05KT P6SM VCSH SCT045
     FM041900 VRB04KT P6SM SCT045=

Latest METAR

414
SAUS70 KWBC 042100 RRD
MTRAGS
METAR KAGS 042053Z 04006KT 10SM SCT070 35/19 A2991 RMK AO2 LTG DSNT E
AND SE SLP126 T03500194 55017


USA.gov is the U.S. government's official web portal to all federal, state and local government web resources and services.